AirNav   Pilot Hours Calculator
 
 345 users online  

5R7 Roy E Ray Airport
Bayou La Batre, Alabama, USA

GOING TO BAYOU LA BATRE?


FAA INFORMATION EFFECTIVE 26 MARCH 2020

Location

FAA Identifier: 5R7
Lat/Long: 30-27-18.9000N 088-12-40.3000W
30-27.315000N 088-12.671667W
30.4552500,-88.2111944
(estimated)
Elevation: 87 ft. / 27 m (estimated)
Variation: 02E (1985)
From city: 3 miles NE of BAYOU LA BATRE, AL
Time zone: UTC -5 (UTC -6 during Standard Time)
Zip code: 36544

Airport Operations

Airport use: Open to the public
Activation date: 07/1965
Control tower: no
ARTCC: HOUSTON CENTER
FSS: ANNISTON FLIGHT SERVICE STATION
NOTAMs facility: ANB (NOTAM-D service available)
Attendance: ON CALL
FOR ARPT ATTENDANT CALL 251-591-6985
Wind indicator: yes
Segmented circle: no
Lights: PHONE REQ

Airport Communications

CTAF: 122.9
WX ASOS at BFM (13 nm NE): PHONE 251-431-6762
WX ASOS at MOB (14 nm N): 124.75 (251-607-0469)
WX ASOS at PQL (16 nm W): 135.175 (228-474-2836)
WX AWOS-3PT at CQF (17 nm E): 118.425 (251-928-3242)

Nearby radio navigation aids

VOR radial/distance  VOR name  Freq  Var
BFMr216/12.4BROOKLEY VORTAC112.8004E
SJIr150/18.0SEMMES VORTAC115.3005E

 
NDB name  Hdg/Dist  Freq  Var  ID
WISLE166/18.924801WMOB -- --- -...

Airport Services

Fuel available: 100LL
Parking: tiedowns
Airframe service: MINOR
Powerplant service: MINOR
Bottled oxygen: NONE
Bulk oxygen: NONE

Runway Information

Runway 18/36

Dimensions: 2000 x 150 ft. / 610 x 46 m
Surface: turf, in good condition
Runway edge markings: RY 18/36 MKD WITH WHITE GARBAGE CAN TOPS.
RUNWAY 18  RUNWAY 36
Latitude: 30-27.479835N30-27.149875N
Longitude: 088-12.674415W088-12.667498W
Elevation: 76.0 ft.87.0 ft.
Traffic pattern: leftleft
Runway heading: 177 magnetic, 179 true357 magnetic, 359 true
Markings: NSTD
Obstructions: 31 ft. pole, 843 ft. from runway, 24 ft. left of centerline, 27:1 slope to clear64 ft. trees, 940 ft. from runway, 169 ft. right of centerline, 14:1 slope to clear

Airport Ownership and Management from official FAA records

Ownership: Privately-owned
Owner: ROBBY GRICE
11317 AIRPORT ROAD
IRVINGTON, AL 36544
Phone (251) 591-6985
Manager: ROBBY GRICE, PRESIDENT
11317 AIRPORT ROAD
IRVINGTON, AL 36544
Phone (251) 591-6985

Airport Operational Statistics

Aircraft based on the field: 35
Single engine airplanes: 32
Multi engine airplanes: 2
Ultralights: 1
    
Aircraft operations: avg 134/week *
59% transient general aviation
41% local general aviation
* for 12-month period ending 01 May 2018

Additional Remarks

FOR CD CTC MOBILE APCH AT 251-662-6236, WHEN APCH CLSD CTC HOUSTON ARTCC AT 281-230-5622.

Instrument Procedures

There are no published instrument procedures at 5R7.

Some nearby airports with instrument procedures:

2R5 - St Elmo Airport (4 nm NW)
KBFM - Mobile Downtown Airport (13 nm NE)
KMOB - Mobile Regional Airport (14 nm N)
KPQL - Trent Lott International Airport (16 nm W)
KCQF - H L Sonny Callahan Airport (17 nm E)
 
Loc | Ops | Rwys | IFR | FBO | Links
Com | Nav | Svcs | Stats | Notes

Continental Services
AirBoss

 
Area around 5R7 (Roy E Ray Airport)
 
Road maps at: MapQuest Bing Google
 
Aerial photo
WARNING: Photo may not be current or correct
Aerial photo of 5R7 (Roy E Ray Airport)
Photo taken 31-Jan-2009

Do you have a better or more recent aerial photo of Roy E Ray Airport that you would like to share? If so, please send us your photo.

 
Sectional chart

 
Airport distance calculator
Flying to Roy E Ray Airport? Find the distance to fly.

From to 5R7

Sunrise and sunset
Times for 08-Apr-2020
 Local
(UTC-5)
 Zulu
(UTC)
Morning civil twilight06:0911:09
Sunrise06:3311:33
Sunset19:1600:16
Evening civil twilight19:4000:40

Current date and time
Zulu (UTC)  08-Apr-2020 08:24:01
Local (UTC-5)  08-Apr-2020 03:24:01
 
METAR
KBFM 
12nm NE 
080753Z AUTO VRB03KT 10SM FEW011 BKN029 OVC035 24/23 A2994 RMK AO2 SLP137 T02440228
KMOB 
14nm N 
080756Z AUTO 22007KT 10SM BKN013 BKN022 OVC029 23/22 A2993 RMK AO2 SLP134 T02280217
KPQL 
17nm W 
080800Z AUTO 24004KT 8SM OVC004 24/23 A2993 RMK AO2 CIG 003V008 T02440228
KCQF 
17nm E 
080755Z AUTO 23004KT 10SM OVC004 22/22 A2993 RMK AO2
TAF
KBFM 
12nm NE 
080520Z 0806/0906 20004KT P6SM BKN010 OVC020 FM080900 23005KT 3SM BR OVC006 FM081300 25005KT 3SM BR OVC010 FM081500 26006KT P6SM OVC020 FM081700 25008KT P6SM BKN050 FM090000 22005KT P6SM SCT035
KMOB 
14nm N 
080520Z 0806/0906 20007KT P6SM SCT009 OVC015 FM080900 23004KT 3SM BR OVC006 FM081200 24003KT 3SM BR BKN010 FM081500 25005KT P6SM OVC025 FM081700 26006KT P6SM BKN050 FM090000 23005KT P6SM SCT040
NOTAMs
Click for the latest NOTAMs
NOTAMs are issued by the DoD/FAA and will open in a separate window not controlled by AirNav.

 

 
 

FBO, Fuel Providers, and Aircraft Ground Support

  
 Business Name 
 
 Contact 
 
 Services / Description 
 
Fuel Prices
 
Comments
  
Roy E. Ray Airport 251-824-4538
no information available

If you are affiliated with Roy E. Ray Airport and would like to show here your services, contact info, web link, logo, and more, click here
100LL
PS $4.90 
 Updated 19-Mar-2020
 
   write
PS=Pump service
Update Fuel Prices
 

Would you like to see your business listed on this page?

 If your business provides an interesting product or service to pilots, flight crews, aircraft, or users of the Roy E Ray Airport, you should consider listing it here.  To start the listing process, click on the button below
 
Add a business
 

Other Pages about Roy E Ray Airport

Update a link
 
Copyright © AirNav, LLC. All rights reserved. Privacy Policy  Contact